createdAt,value
2018-11-12T00:00:42.336Z,10.30
2018-11-12T00:03:10.815Z,10.20
2018-11-12T00:05:39.314Z,10.30
2018-11-12T00:08:07.764Z,10.20
2018-11-12T00:10:36.231Z,10.30
2018-11-12T00:13:04.733Z,10.20
2018-11-12T00:15:33.213Z,10.20
2018-11-12T00:18:01.670Z,10.10
2018-11-12T00:20:30.131Z,10.10
2018-11-12T00:22:58.615Z,10.20
2018-11-12T00:25:27.078Z,10.20
2018-11-12T00:27:55.511Z,10.30
2018-11-12T00:30:23.961Z,10.20
2018-11-12T00:32:52.421Z,10.20
2018-11-12T00:35:20.906Z,10.20
2018-11-12T00:37:49.365Z,10.20
2018-11-12T00:40:18.269Z,10.10
2018-11-12T00:42:47.309Z,10.10
2018-11-12T00:45:16.153Z,10.10
2018-11-12T00:47:44.662Z,10.20
2018-11-12T00:50:14.225Z,10.20
2018-11-12T00:52:42.654Z,10.20
2018-11-12T00:55:12.637Z,10.30
2018-11-12T00:57:41.441Z,10.30
2018-11-12T01:00:12.252Z,10.30
2018-11-12T01:02:42.001Z,10.40
2018-11-12T01:05:10.497Z,10.50
2018-11-12T01:07:38.910Z,10.50
2018-11-12T01:10:08.455Z,10.50
2018-11-12T01:12:36.889Z,10.40
2018-11-12T01:15:07.424Z,10.40
2018-11-12T01:17:35.826Z,10.40
2018-11-12T01:20:04.318Z,10.40
2018-11-12T01:22:32.733Z,10.40
2018-11-12T01:25:01.174Z,10.50
2018-11-12T01:27:29.590Z,10.50
2018-11-12T01:29:58.026Z,10.60
2018-11-12T01:32:26.446Z,10.60
2018-11-12T01:34:54.865Z,10.60
2018-11-12T01:37:23.297Z,10.70
2018-11-12T01:39:51.709Z,10.70
2018-11-12T01:42:20.137Z,10.70
2018-11-12T01:44:48.550Z,10.80
2018-11-12T01:47:16.978Z,10.80
2018-11-12T01:49:45.397Z,10.80
2018-11-12T01:52:13.846Z,10.80
2018-11-12T01:54:42.253Z,10.80
2018-11-12T01:57:10.745Z,10.70
2018-11-12T01:59:39.175Z,10.60
2018-11-12T02:02:07.606Z,10.60
2018-11-12T02:04:36.083Z,10.70
2018-11-12T02:07:04.590Z,10.60
2018-11-12T02:09:33.001Z,10.70
2018-11-12T02:12:01.426Z,10.70
2018-11-12T02:14:29.874Z,10.80
2018-11-12T02:16:58.288Z,10.80
2018-11-12T02:19:26.733Z,10.80
2018-11-12T02:21:55.150Z,10.80
2018-11-12T02:24:23.556Z,10.80
2018-11-12T02:26:52.014Z,10.80
2018-11-12T02:29:20.433Z,10.80
2018-11-12T02:31:48.859Z,10.90
2018-11-12T02:34:17.301Z,10.90
2018-11-12T02:36:45.770Z,11.00
2018-11-12T02:39:14.242Z,11.10
2018-11-12T02:41:42.714Z,11.00
2018-11-12T02:44:11.175Z,11.00
2018-11-12T02:46:39.642Z,10.90
2018-11-12T02:49:08.127Z,11.00
2018-11-12T02:51:36.589Z,11.00
2018-11-12T02:54:05.266Z,11.10
2018-11-12T02:56:34.409Z,11.10
2018-11-12T02:59:02.845Z,11.10
2018-11-12T03:01:31.333Z,11.10
2018-11-12T03:03:59.766Z,11.20
2018-11-12T03:06:28.218Z,11.30
2018-11-12T03:08:56.657Z,11.40
2018-11-12T03:11:25.105Z,11.50
2018-11-12T03:13:53.537Z,11.40
2018-11-12T03:16:22.021Z,11.40
2018-11-12T03:18:50.467Z,11.30
2018-11-12T03:21:18.934Z,11.30
2018-11-12T03:23:47.374Z,11.30
2018-11-12T03:26:15.821Z,11.40
2018-11-12T03:28:44.320Z,11.50
2018-11-12T03:31:12.743Z,11.60
2018-11-12T03:33:41.210Z,11.80
2018-11-12T03:36:09.651Z,11.80
2018-11-12T03:38:38.110Z,12.00
2018-11-12T03:41:06.562Z,12.10
2018-11-12T03:43:35.046Z,12.10
2018-11-12T03:46:03.494Z,12.10
2018-11-12T03:48:31.970Z,12.00
2018-11-12T03:51:00.406Z,12.00
2018-11-12T03:53:28.857Z,11.90
2018-11-12T03:55:57.295Z,11.90
2018-11-12T03:58:25.754Z,11.90
2018-11-12T04:00:54.194Z,12.00
2018-11-12T04:03:22.665Z,12.10
2018-11-12T04:05:51.088Z,12.10
2018-11-12T04:08:19.561Z,12.10
2018-11-12T04:10:48.014Z,12.20
2018-11-12T04:13:16.474Z,12.20
2018-11-12T04:15:44.945Z,12.30
2018-11-12T04:18:13.410Z,12.30
2018-11-12T04:20:41.849Z,12.30
2018-11-12T04:23:10.274Z,12.40
2018-11-12T04:25:39.870Z,12.50
2018-11-12T04:28:08.335Z,12.50
2018-11-12T04:30:36.833Z,12.50
2018-11-12T04:33:05.442Z,12.50
2018-11-12T04:35:33.865Z,12.40
2018-11-12T04:38:02.308Z,12.30
2018-11-12T04:40:30.748Z,12.20
2018-11-12T04:42:59.198Z,12.10
2018-11-12T04:45:27.726Z,12.10
2018-11-12T04:47:56.254Z,12.10
2018-11-12T04:50:26.110Z,12.00
2018-11-12T04:52:54.760Z,12.00
2018-11-12T04:55:23.973Z,12.00
2018-11-12T04:57:52.366Z,12.00
2018-11-12T05:00:22.630Z,12.00
2018-11-12T05:02:51.086Z,12.00
2018-11-12T05:05:20.750Z,11.90
2018-11-12T05:07:49.187Z,11.80
2018-11-12T05:10:18.838Z,11.80
2018-11-12T05:12:47.897Z,11.80
2018-11-12T05:15:17.710Z,11.80
2018-11-12T05:17:46.169Z,11.80
2018-11-12T05:20:17.561Z,11.80
2018-11-12T05:22:46.069Z,11.80
2018-11-12T05:25:14.537Z,11.70
2018-11-12T05:27:42.977Z,11.70
2018-11-12T05:30:15.621Z,11.60
2018-11-12T05:32:44.118Z,11.60
2018-11-12T05:35:13.578Z,11.70
2018-11-12T05:37:42.169Z,11.70
2018-11-12T05:40:13.087Z,11.70
2018-11-12T05:42:42.046Z,11.70
2018-11-12T05:45:10.587Z,11.60
2018-11-12T05:47:39.462Z,11.70
2018-11-12T05:50:10.941Z,11.70
2018-11-12T05:52:39.405Z,11.60
2018-11-12T05:55:09.439Z,11.70
2018-11-12T05:57:38.202Z,11.60
2018-11-12T06:00:07.934Z,11.60
2018-11-12T06:02:36.374Z,11.50
2018-11-12T06:05:05.493Z,11.50
2018-11-12T06:07:33.936Z,11.50
2018-11-12T06:10:03.366Z,11.40
2018-11-12T06:12:31.805Z,11.40
2018-11-12T06:15:00.290Z,11.50
2018-11-12T06:17:28.705Z,11.50
2018-11-12T06:19:57.133Z,11.50
2018-11-12T06:22:25.580Z,11.60
2018-11-12T06:24:54.009Z,11.50
2018-11-12T06:27:22.430Z,11.50
2018-11-12T06:29:50.871Z,11.60
2018-11-12T06:32:19.341Z,11.60
2018-11-12T06:34:47.808Z,11.60
2018-11-12T06:37:16.300Z,11.60
2018-11-12T06:39:44.757Z,11.60
2018-11-12T06:42:13.883Z,11.60
2018-11-12T06:44:42.301Z,11.60
2018-11-12T06:47:10.786Z,11.60
2018-11-12T06:49:39.229Z,11.60
2018-11-12T06:52:07.701Z,11.60
2018-11-12T06:54:36.150Z,11.60
2018-11-12T06:57:04.788Z,11.60
2018-11-12T06:59:33.286Z,11.60
2018-11-12T07:02:01.746Z,11.70
2018-11-12T07:04:30.186Z,11.70
2018-11-12T07:06:58.717Z,11.80
2018-11-12T07:09:27.107Z,11.80
2018-11-12T07:11:55.582Z,11.90
2018-11-12T07:14:24.075Z,11.90
2018-11-12T07:16:52.567Z,11.90
2018-11-12T07:19:21.014Z,11.90
2018-11-12T07:21:49.489Z,12.00
2018-11-12T07:24:17.925Z,12.00
2018-11-12T07:26:46.986Z,12.00
2018-11-12T07:29:15.429Z,12.00
2018-11-12T07:31:43.904Z,11.90
2018-11-12T07:34:12.349Z,12.00
2018-11-12T07:36:40.812Z,12.00
2018-11-12T07:39:10.406Z,12.10
2018-11-12T07:41:38.874Z,12.10
2018-11-12T07:44:07.547Z,12.20
2018-11-12T07:46:36.033Z,12.30
2018-11-12T07:49:04.498Z,12.30
2018-11-12T07:51:32.950Z,12.40
2018-11-12T07:54:01.380Z,12.40
2018-11-12T07:56:29.908Z,12.50
2018-11-12T07:58:58.352Z,12.50
2018-11-12T08:01:26.806Z,12.60
2018-11-12T08:03:55.237Z,12.60
2018-11-12T08:06:23.693Z,12.60
2018-11-12T08:08:52.124Z,12.60
2018-11-12T08:11:20.673Z,12.60
2018-11-12T08:13:49.105Z,12.60
2018-11-12T08:16:17.621Z,12.60
2018-11-12T08:18:46.085Z,12.70
2018-11-12T08:21:14.525Z,12.70
2018-11-12T08:23:42.982Z,12.80
2018-11-12T08:26:11.434Z,13.00
2018-11-12T08:28:39.907Z,13.10
2018-11-12T08:31:08.350Z,13.10
2018-11-12T08:33:36.825Z,13.20
2018-11-12T08:36:05.343Z,13.20
2018-11-12T08:38:33.805Z,13.20
2018-11-12T08:41:02.285Z,13.20
2018-11-12T08:43:30.736Z,13.20
2018-11-12T08:45:59.218Z,13.30
2018-11-12T08:48:27.666Z,13.30
2018-11-12T08:50:56.109Z,13.30
2018-11-12T08:53:24.566Z,13.50
2018-11-12T08:55:53.022Z,13.80
2018-11-12T08:58:21.514Z,13.90
2018-11-12T09:00:50.222Z,14.00
2018-11-12T09:03:18.646Z,14.20
2018-11-12T09:05:47.158Z,14.50
2018-11-12T09:08:15.573Z,14.70
2018-11-12T09:10:44.030Z,14.90
2018-11-12T09:13:12.530Z,15.10
2018-11-12T09:15:41.051Z,15.20
2018-11-12T09:18:09.557Z,15.30
2018-11-12T09:20:38.042Z,15.40
2018-11-12T09:23:06.534Z,15.40
2018-11-12T09:25:35.036Z,15.50
2018-11-12T09:28:03.524Z,15.60
2018-11-12T09:30:31.977Z,15.70
2018-11-12T09:33:00.501Z,15.70
2018-11-12T09:35:31.119Z,15.90
2018-11-12T09:38:00.510Z,16.00
2018-11-12T09:40:30.226Z,16.10
2018-11-12T09:42:58.701Z,16.20
2018-11-12T09:45:27.163Z,16.10
2018-11-12T09:47:55.670Z,16.20
2018-11-12T09:50:25.102Z,16.30
2018-11-12T09:52:54.602Z,16.30
2018-11-12T09:55:24.097Z,16.30
2018-11-12T09:57:54.226Z,16.30
2018-11-12T10:00:22.889Z,16.40
2018-11-12T10:02:52.273Z,16.40
2018-11-12T10:05:21.327Z,16.40
2018-11-12T10:07:52.143Z,16.40
2018-11-12T10:10:32.411Z,16.40
2018-11-12T10:12:59.940Z,16.50
2018-11-12T10:15:30.137Z,16.50
2018-11-12T10:17:57.997Z,16.50
2018-11-12T10:20:23.898Z,16.50
2018-11-12T10:22:52.346Z,16.40
2018-11-12T10:25:21.073Z,16.50
2018-11-12T10:27:50.228Z,16.40
2018-11-12T10:30:18.949Z,16.40
2018-11-12T10:32:47.439Z,16.50
2018-11-12T10:35:15.978Z,16.50
2018-11-12T10:37:44.471Z,16.50
2018-11-12T10:40:15.127Z,16.60
2018-11-12T10:42:44.257Z,16.60
2018-11-12T10:45:12.783Z,16.50
2018-11-12T10:47:41.324Z,16.60
2018-11-12T10:50:09.870Z,16.50
2018-11-12T10:52:38.334Z,16.50
2018-11-12T10:55:08.859Z,16.50
2018-11-12T10:57:37.204Z,16.50
2018-11-12T11:00:15.329Z,16.70
2018-11-12T11:02:48.983Z,16.70
2018-11-12T11:05:17.437Z,16.80
2018-11-12T11:07:45.890Z,16.80
2018-11-12T11:10:14.359Z,16.90
2018-11-12T11:12:43.549Z,17.00
2018-11-12T11:15:12.105Z,17.00
2018-11-12T11:17:40.561Z,17.00
2018-11-12T11:20:09.078Z,17.10
2018-11-12T11:22:38.128Z,17.10
2018-11-12T11:25:07.225Z,17.10
2018-11-12T11:27:35.682Z,17.10
2018-11-12T11:30:04.590Z,17.10
2018-11-12T11:32:33.632Z,17.10
2018-11-12T11:35:02.155Z,17.10
2018-11-12T11:37:30.607Z,17.20
2018-11-12T11:39:59.085Z,17.20
2018-11-12T11:42:27.836Z,17.20
2018-11-12T11:44:56.317Z,17.30
2018-11-12T11:47:24.884Z,17.40
2018-11-12T11:49:53.254Z,17.40
2018-11-12T11:52:21.825Z,17.50
2018-11-12T11:54:50.306Z,17.90
2018-11-12T11:57:18.850Z,17.80
2018-11-12T11:59:47.498Z,18.00
2018-11-12T12:02:15.999Z,18.00
2018-11-12T12:04:44.445Z,17.90
2018-11-12T12:07:12.893Z,17.80
2018-11-12T12:09:41.381Z,17.70
2018-11-12T12:12:09.855Z,17.60
2018-11-12T12:14:38.373Z,17.70
2018-11-12T12:17:06.841Z,17.80
2018-11-12T12:19:35.284Z,17.90
2018-11-12T12:22:03.773Z,18.00
2018-11-12T12:24:33.026Z,18.10
2018-11-12T12:27:01.439Z,18.50
2018-11-12T12:29:29.939Z,18.70
2018-11-12T12:31:58.495Z,19.50
2018-11-12T12:34:27.892Z,20.10
2018-11-12T12:36:56.436Z,20.70
2018-11-12T12:39:24.832Z,20.10
2018-11-12T12:41:53.306Z,19.90
2018-11-12T12:44:21.802Z,20.40
2018-11-12T12:46:50.283Z,20.30
2018-11-12T12:49:18.772Z,21.10
2018-11-12T12:51:47.290Z,20.60
2018-11-12T12:54:15.762Z,20.50
2018-11-12T12:56:44.253Z,20.80
2018-11-12T12:59:12.717Z,21.30
2018-11-12T13:01:41.231Z,21.10
2018-11-12T13:04:09.651Z,20.40
2018-11-12T13:06:38.218Z,20.20
2018-11-12T13:09:09.002Z,20.00
2018-11-12T13:11:37.530Z,19.70
2018-11-12T13:14:06.160Z,19.50
2018-11-12T13:16:34.558Z,19.30
2018-11-12T13:19:03.139Z,19.20
2018-11-12T13:21:31.748Z,19.20
2018-11-12T13:24:00.250Z,19.20
2018-11-12T13:26:28.714Z,19.20
2018-11-12T13:28:57.159Z,19.30
2018-11-12T13:31:25.642Z,19.60
2018-11-12T13:33:54.099Z,20.10
2018-11-12T13:36:22.593Z,20.80
2018-11-12T13:38:51.085Z,21.30
2018-11-12T13:41:19.561Z,21.60
2018-11-12T13:43:48.233Z,21.60
2018-11-12T13:46:16.808Z,22.10
2018-11-12T13:48:45.509Z,22.60
2018-11-12T13:51:13.990Z,22.80
2018-11-12T13:53:42.460Z,21.90
2018-11-12T13:56:10.937Z,20.90
2018-11-12T13:58:39.401Z,20.90
2018-11-12T14:01:07.906Z,20.70
2018-11-12T14:03:36.373Z,20.40
2018-11-12T14:06:04.858Z,20.50
2018-11-12T14:08:33.335Z,20.30
2018-11-12T14:11:01.805Z,20.40
2018-11-12T14:13:30.522Z,20.20
2018-11-12T14:15:59.005Z,20.00
2018-11-12T14:18:27.493Z,19.70
2018-11-12T14:20:56.071Z,19.70
2018-11-12T14:23:24.453Z,19.40
2018-11-12T14:25:52.926Z,19.40
2018-11-12T14:28:21.464Z,19.30
2018-11-12T14:30:49.922Z,19.30
2018-11-12T14:33:18.477Z,19.20
2018-11-12T14:35:47.151Z,19.10
2018-11-12T14:38:15.656Z,18.80
2018-11-12T14:40:44.147Z,18.70
2018-11-12T14:43:12.635Z,18.70
2018-11-12T14:45:41.118Z,18.50
2018-11-12T14:48:09.611Z,18.50
2018-11-12T14:50:38.069Z,18.40
2018-11-12T14:53:06.605Z,18.30
2018-11-12T14:55:35.103Z,18.20
2018-11-12T14:58:03.610Z,18.20
2018-11-12T15:00:32.049Z,18.10
2018-11-12T15:03:00.554Z,18.10
2018-11-12T15:05:29.005Z,18.10
2018-11-12T15:07:57.465Z,18.10
2018-11-12T15:10:25.922Z,18.00
2018-11-12T15:12:54.415Z,18.00
2018-11-12T15:15:22.946Z,18.00
2018-11-12T15:17:51.547Z,18.00
2018-11-12T15:20:21.045Z,17.90
2018-11-12T15:22:49.683Z,17.80
2018-11-12T15:25:20.701Z,17.80
2018-11-12T15:27:49.183Z,17.90
2018-11-12T15:30:18.939Z,17.80
2018-11-12T15:32:48.438Z,17.80
2018-11-12T15:35:17.046Z,17.80
2018-11-12T15:37:46.143Z,17.80
2018-11-12T15:40:14.969Z,17.80
2018-11-12T15:42:43.517Z,17.80
2018-11-12T15:45:15.235Z,17.80
2018-11-12T15:47:44.638Z,17.80
2018-11-12T15:50:15.890Z,17.80
2018-11-12T15:52:44.941Z,17.80
2018-11-12T15:55:13.439Z,17.80
2018-11-12T15:57:42.126Z,17.80
2018-11-12T16:00:13.220Z,17.80
2018-11-12T16:02:41.779Z,17.80
2018-11-12T16:05:11.143Z,17.80
2018-11-12T16:07:39.684Z,17.80
2018-11-12T16:10:10.165Z,17.70
2018-11-12T16:12:39.106Z,17.60
2018-11-12T16:15:08.161Z,17.30
2018-11-12T16:17:36.626Z,17.00
2018-11-12T16:20:07.998Z,16.80
2018-11-12T16:22:36.446Z,16.30
2018-11-12T16:25:05.881Z,16.10
2018-11-12T16:27:34.338Z,15.80
2018-11-12T16:30:02.892Z,15.60
2018-11-12T16:32:31.354Z,15.50
2018-11-12T16:34:59.825Z,15.30
2018-11-12T16:37:28.301Z,15.20
2018-11-12T16:39:56.782Z,15.10
2018-11-12T16:42:25.245Z,15.10
2018-11-12T16:44:53.711Z,14.90
2018-11-12T16:47:22.206Z,14.80
2018-11-12T16:49:50.661Z,14.90
2018-11-12T16:52:19.112Z,14.80
2018-11-12T16:54:47.670Z,14.80
2018-11-12T16:57:16.109Z,14.80
2018-11-12T16:59:44.566Z,14.80
2018-11-12T17:02:13.025Z,14.70
2018-11-12T17:04:41.518Z,14.70
2018-11-12T17:07:09.974Z,14.70
2018-11-12T17:09:38.428Z,14.70
2018-11-12T17:12:07.053Z,14.70
2018-11-12T17:14:35.518Z,14.70
2018-11-12T17:17:03.986Z,14.60
2018-11-12T17:19:32.439Z,14.60
2018-11-12T17:22:00.890Z,14.60
2018-11-12T17:24:29.338Z,14.60
2018-11-12T17:26:57.797Z,14.60
2018-11-12T17:29:26.245Z,14.50
2018-11-12T17:31:54.666Z,14.50
2018-11-12T17:34:23.119Z,14.50
2018-11-12T17:36:51.550Z,14.40
2018-11-12T17:39:20.022Z,14.40
2018-11-12T17:41:48.526Z,14.40
2018-11-12T17:44:16.994Z,14.40
2018-11-12T17:46:45.621Z,14.30
2018-11-12T17:49:14.061Z,14.30
2018-11-12T17:51:42.526Z,14.30
2018-11-12T17:54:11.059Z,14.30
2018-11-12T17:56:39.529Z,14.30
2018-11-12T17:59:08.009Z,14.30
2018-11-12T18:01:36.820Z,14.30
2018-11-12T18:04:05.354Z,14.20
2018-11-12T18:06:33.894Z,14.10
2018-11-12T18:09:02.469Z,14.10
2018-11-12T18:11:31.006Z,14.00
2018-11-12T18:13:59.438Z,13.90
2018-11-12T18:16:27.905Z,13.90
2018-11-12T18:18:56.419Z,13.90
2018-11-12T18:21:24.989Z,13.90
2018-11-12T18:23:53.485Z,13.90
2018-11-12T18:26:22.017Z,14.00
2018-11-12T18:28:50.534Z,13.90
2018-11-12T18:31:19.289Z,13.90
2018-11-12T18:33:47.587Z,14.00
2018-11-12T18:36:16.078Z,14.00
2018-11-12T18:38:44.520Z,14.00
2018-11-12T18:41:12.975Z,14.00
2018-11-12T18:43:41.466Z,14.00
2018-11-12T18:46:09.911Z,14.00
2018-11-12T18:48:38.331Z,13.90
2018-11-12T18:51:06.828Z,13.90
2018-11-12T18:53:35.326Z,13.90
2018-11-12T18:56:03.895Z,13.90
2018-11-12T18:58:32.358Z,13.90
2018-11-12T19:01:00.907Z,13.80
2018-11-12T19:03:29.348Z,13.80
2018-11-12T19:05:57.822Z,13.80
2018-11-12T19:08:26.262Z,13.80
2018-11-12T19:10:54.807Z,13.80
2018-11-12T19:13:23.199Z,13.80
2018-11-12T19:15:51.691Z,13.80
2018-11-12T19:18:20.146Z,13.80
2018-11-12T19:20:48.642Z,13.70
2018-11-12T19:23:17.126Z,13.70
2018-11-12T19:25:45.613Z,13.70
2018-11-12T19:28:14.075Z,13.70
2018-11-12T19:30:42.566Z,13.70
2018-11-12T19:33:11.057Z,13.70
2018-11-12T19:35:39.506Z,13.70
2018-11-12T19:38:07.999Z,13.60
2018-11-12T19:40:36.521Z,13.60
2018-11-12T19:43:05.002Z,13.60
2018-11-12T19:45:33.486Z,13.60
2018-11-12T19:48:01.995Z,13.60
2018-11-12T19:50:30.985Z,13.60
2018-11-12T19:53:00.135Z,13.60
2018-11-12T19:55:28.628Z,13.60
2018-11-12T19:57:57.189Z,13.60
2018-11-12T20:00:27.819Z,13.60
2018-11-12T20:02:57.386Z,13.50
2018-11-12T20:05:26.587Z,13.50
2018-11-12T20:07:55.174Z,13.50
2018-11-12T20:10:24.126Z,13.50
2018-11-12T20:12:52.714Z,13.40
2018-11-12T20:15:22.552Z,13.40
2018-11-12T20:17:51.849Z,13.40
2018-11-12T20:20:22.662Z,13.40
2018-11-12T20:22:51.483Z,13.50
2018-11-12T20:25:20.416Z,13.50
2018-11-12T20:27:49.551Z,13.50
2018-11-12T20:30:22.900Z,13.50
2018-11-12T20:32:51.495Z,13.40
2018-11-12T20:35:20.023Z,13.40
2018-11-12T20:37:48.596Z,13.30
2018-11-12T20:40:17.423Z,13.30
2018-11-12T20:42:46.901Z,13.20
2018-11-12T20:45:16.346Z,13.30
2018-11-12T20:47:45.897Z,13.30
2018-11-12T20:50:15.078Z,13.30
2018-11-12T20:52:44.037Z,13.30
2018-11-12T20:55:13.439Z,13.40
2018-11-12T20:57:42.350Z,13.40
2018-11-12T21:00:14.567Z,13.40
2018-11-12T21:02:44.384Z,13.50
2018-11-12T21:05:13.375Z,13.50
2018-11-12T21:07:41.870Z,13.60
2018-11-12T21:10:12.546Z,13.50
2018-11-12T21:12:41.002Z,13.50
2018-11-12T21:15:10.927Z,13.50
2018-11-12T21:17:39.377Z,13.50
2018-11-12T21:20:09.702Z,13.50
2018-11-12T21:22:38.198Z,13.50
2018-11-12T21:25:08.310Z,13.50
2018-11-12T21:27:36.871Z,13.50
2018-11-12T21:30:06.694Z,13.50
2018-11-12T21:32:35.140Z,13.50
2018-11-12T21:35:03.708Z,13.40
2018-11-12T21:37:32.243Z,13.40
2018-11-12T21:40:00.786Z,13.40
2018-11-12T21:42:29.328Z,13.30
2018-11-12T21:44:57.851Z,13.30
2018-11-12T21:47:26.378Z,13.30
2018-11-12T21:49:54.864Z,13.30
2018-11-12T21:52:23.301Z,13.30
2018-11-12T21:54:51.781Z,13.30
2018-11-12T21:57:20.233Z,13.30
2018-11-12T21:59:48.833Z,13.30
2018-11-12T22:02:17.299Z,13.30
2018-11-12T22:04:45.794Z,13.30
2018-11-12T22:07:14.274Z,13.30
2018-11-12T22:09:42.800Z,13.30
2018-11-12T22:12:11.318Z,13.30
2018-11-12T22:14:39.842Z,13.30
2018-11-12T22:17:08.338Z,13.40
2018-11-12T22:19:36.985Z,13.30
2018-11-12T22:22:05.726Z,13.20
2018-11-12T22:24:34.230Z,13.30
2018-11-12T22:27:02.782Z,13.20
2018-11-12T22:29:31.286Z,13.20
2018-11-12T22:31:59.787Z,13.20
2018-11-12T22:34:28.247Z,13.20
2018-11-12T22:36:56.727Z,13.20
2018-11-12T22:39:25.210Z,13.20
2018-11-12T22:41:53.717Z,13.20
2018-11-12T22:44:22.208Z,13.10
2018-11-12T22:46:50.702Z,13.10
2018-11-12T22:49:19.196Z,13.10
2018-11-12T22:51:47.757Z,13.00
2018-11-12T22:54:16.318Z,13.00
2018-11-12T22:56:44.870Z,13.00
2018-11-12T22:59:13.356Z,12.90
2018-11-12T23:01:41.938Z,13.00
2018-11-12T23:04:10.510Z,12.90
2018-11-12T23:06:39.101Z,13.00
2018-11-12T23:09:13.415Z,13.00
2018-11-12T23:11:41.965Z,13.00
2018-11-12T23:14:10.673Z,13.00
2018-11-12T23:16:39.266Z,13.00
2018-11-12T23:19:07.774Z,13.00
2018-11-12T23:21:36.408Z,13.00
2018-11-12T23:24:05.218Z,13.00
2018-11-12T23:26:33.715Z,13.00
2018-11-12T23:29:02.261Z,13.00
2018-11-12T23:31:30.798Z,13.00
2018-11-12T23:33:59.290Z,12.90
2018-11-12T23:36:27.817Z,12.90
2018-11-12T23:38:56.433Z,12.90
2018-11-12T23:41:24.910Z,12.90
2018-11-12T23:43:53.358Z,12.90
2018-11-12T23:46:21.870Z,12.80
2018-11-12T23:48:50.337Z,12.90
2018-11-12T23:51:19.487Z,12.90
2018-11-12T23:53:48.066Z,12.90
2018-11-12T23:56:16.613Z,12.80
2018-11-12T23:58:45.184Z,12.70
